San Diego, California
Traffic Map
Current Weather Conditions
San Diego, California
Scattered Clouds
Scattered Clouds
74°
Feels Like: 74°
Wind Chill: 74° Ceiling: Unl
Heat Index: 74° Visibility: 10mi
Dew Point: 63° Wind: 10mph
Humidity: 68% Direction: 300° (WNW)
Pressure: 29.91in Gusts: 0mph
Raw Report DataKSAN 251851Z 30009KT 10SM FEW010 SCT050 23/17 A2991 RMK AO2 SLP129 T02330172
Traffic Incident Summary
Active as of:
Severity:
Category:
InformationThere was an issue retrieving the traffic information for this location. Please try a different location or try again shortly.
Advertisements
Track Severe Weather on mobile